sensor_id;sensor_type;location;lat;lon;timestamp;pressure;altitude;pressure_sealevel;temperature;humidity
6128;BME280;7073;42.672;23.256;2022-12-17T08:00:20;94232.00;;;17.15;77.97
6128;BME280;7073;42.672;23.256;2022-12-17T08:03:04;94234.28;;;17.73;70.35
6128;BME280;7073;42.672;23.256;2022-12-17T08:05:48;94226.38;;;17.84;67.97
6128;BME280;7073;42.672;23.256;2022-12-17T08:08:33;94288.38;;;18.01;64.30
6128;BME280;7073;42.672;23.256;2022-12-17T08:11:28;94262.25;;;18.15;61.90
6128;BME280;7073;42.672;23.256;2022-12-17T08:14:12;94258.81;;;18.04;62.71
6128;BME280;7073;42.672;23.256;2022-12-17T08:16:58;94266.75;;;18.14;63.07
6128;BME280;7073;42.672;23.256;2022-12-17T08:19:42;94284.13;;;18.00;60.95
6128;BME280;7073;42.672;23.256;2022-12-17T08:22:27;94327.66;;;18.18;59.55
6128;BME280;7073;42.672;23.256;2022-12-17T08:25:11;94279.13;;;18.24;59.49
6128;BME280;7073;42.672;23.256;2022-12-17T08:27:55;94280.72;;;18.40;57.34
6128;BME280;7073;42.672;23.256;2022-12-17T08:30:40;94300.25;;;18.49;55.57
6128;BME280;7073;42.672;23.256;2022-12-17T08:33:26;94256.44;;;18.43;57.33
6128;BME280;7073;42.672;23.256;2022-12-17T08:36:10;94270.47;;;18.49;55.87
6128;BME280;7073;42.672;23.256;2022-12-17T08:38:54;94272.81;;;18.45;57.28
6128;BME280;7073;42.672;23.256;2022-12-17T08:41:39;94273.84;;;18.44;56.49
6128;BME280;7073;42.672;23.256;2022-12-17T08:44:23;94301.84;;;18.35;59.35
6128;BME280;7073;42.672;23.256;2022-12-17T08:47:06;94296.53;;;17.95;62.63
6128;BME280;7073;42.672;23.256;2022-12-17T08:49:57;94293.66;;;18.11;62.29
6128;BME280;7073;42.672;23.256;2022-12-17T08:52:41;94305.75;;;17.97;63.00
6128;BME280;7073;42.672;23.256;2022-12-17T08:55:26;94301.78;;;17.85;64.74
6128;BME280;7073;42.672;23.256;2022-12-17T08:58:10;94298.28;;;17.54;65.53
6128;BME280;7073;42.672;23.256;2022-12-17T09:00:50;94307.16;;;17.38;67.06
6128;BME280;7073;42.672;23.256;2022-12-17T09:03:34;94307.41;;;17.36;67.84
6128;BME280;7073;42.672;23.256;2022-12-17T09:06:20;94303.13;;;17.20;69.39
6128;BME280;7073;42.672;23.256;2022-12-17T09:09:04;94306.28;;;16.75;74.59
6128;BME280;7073;42.672;23.256;2022-12-17T09:11:48;94308.03;;;16.28;82.84
6128;BME280;7073;42.672;23.256;2022-12-17T09:14:32;94309.03;;;15.63;88.97
6128;BME280;7073;42.672;23.256;2022-12-17T09:17:16;94325.72;;;15.52;90.58
6128;BME280;7073;42.672;23.256;2022-12-17T09:20:00;94330.16;;;15.52;89.74
6128;BME280;7073;42.672;23.256;2022-12-17T09:22:45;94338.47;;;15.65;89.18
6128;BME280;7073;42.672;23.256;2022-12-17T09:25:29;94361.34;;;15.70;88.10
6128;BME280;7073;42.672;23.256;2022-12-17T09:28:13;94378.47;;;15.72;87.44
6128;BME280;7073;42.672;23.256;2022-12-17T09:30:58;94389.00;;;15.51;90.04
6128;BME280;7073;42.672;23.256;2022-12-17T09:33:42;94407.63;;;15.32;92.04
6128;BME280;7073;42.672;23.256;2022-12-17T09:36:26;94411.38;;;15.20;92.94
6128;BME280;7073;42.672;23.256;2022-12-17T09:39:14;94422.53;;;15.10;93.09
6128;BME280;7073;42.672;23.256;2022-12-17T09:42:04;94406.50;;;14.90;91.97
6128;BME280;7073;42.672;23.256;2022-12-17T09:44:55;94408.06;;;15.08;90.93
6128;BME280;7073;42.672;23.256;2022-12-17T09:47:50;94421.28;;;14.96;89.75
6128;BME280;7073;42.672;23.256;2022-12-17T09:50:35;94412.22;;;14.87;85.83
6128;BME280;7073;42.672;23.256;2022-12-17T09:53:22;94383.31;;;14.82;83.48
6128;BME280;7073;42.672;23.256;2022-12-17T09:56:11;94393.00;;;14.65;76.51
6128;BME280;7073;42.672;23.256;2022-12-17T09:58:57;94375.78;;;14.69;77.61
6128;BME280;7073;42.672;23.256;2022-12-17T10:01:41;94356.53;;;14.80;79.56
6128;BME280;7073;42.672;23.256;2022-12-17T10:04:32;94352.53;;;14.11;84.77
6128;BME280;7073;42.672;23.256;2022-12-17T10:07:20;94344.44;;;14.29;87.43
6128;BME280;7073;42.672;23.256;2022-12-17T10:10:18;94347.25;;;13.94;89.18
6128;BME280;7073;42.672;23.256;2022-12-17T10:13:09;94378.88;;;13.76;91.07
6128;BME280;7073;42.672;23.256;2022-12-17T10:15:54;94403.91;;;13.72;93.60
6128;BME280;7073;42.672;23.256;2022-12-17T10:18:38;94423.91;;;13.50;97.02
6128;BME280;7073;42.672;23.256;2022-12-17T10:21:21;94431.78;;;12.92;100.00
6128;BME280;7073;42.672;23.256;2022-12-17T10:24:06;94414.72;;;12.55;100.00
6128;BME280;7073;42.672;23.256;2022-12-17T10:26:51;94420.28;;;12.70;100.00
6128;BME280;7073;42.672;23.256;2022-12-17T10:29:38;94434.38;;;12.57;100.00
6128;BME280;7073;42.672;23.256;2022-12-17T10:32:24;94424.69;;;12.46;100.00
6128;BME280;7073;42.672;23.256;2022-12-17T10:35:16;94424.75;;;12.28;100.00
6128;BME280;7073;42.672;23.256;2022-12-17T10:38:09;94414.75;;;12.25;100.00
6128;BME280;7073;42.672;23.256;2022-12-17T10:40:54;94421.34;;;12.16;100.00
6128;BME280;7073;42.672;23.256;2022-12-17T10:43:39;94416.34;;;12.26;100.00
6128;BME280;7073;42.672;23.256;2022-12-17T10:46:26;94414.31;;;12.28;100.00
6128;BME280;7073;42.672;23.256;2022-12-17T10:49:15;94398.22;;;12.43;100.00
6128;BME280;7073;42.672;23.256;2022-12-17T10:52:01;94390.97;;;12.68;100.00
6128;BME280;7073;42.672;23.256;2022-12-17T10:54:59;94375.06;;;12.81;100.00
6128;BME280;7073;42.672;23.256;2022-12-17T10:57:44;94344.69;;;12.92;100.00
6128;BME280;7073;42.672;23.256;2022-12-17T11:00:31;94360.16;;;13.05;100.00
6128;BME280;7073;42.672;23.256;2022-12-17T11:03:38;94353.22;;;13.22;100.00
6128;BME280;7073;42.672;23.256;2022-12-17T11:06:33;94289.03;;;13.31;100.00
6128;BME280;7073;42.672;23.256;2022-12-17T11:09:27;94301.75;;;13.39;100.00
6128;BME280;7073;42.672;23.256;2022-12-17T11:12:13;94290.66;;;13.48;100.00
6128;BME280;7073;42.672;23.256;2022-12-17T11:15:03;94303.47;;;13.33;100.00
6128;BME280;7073;42.672;23.256;2022-12-17T11:17:52;94313.28;;;13.55;100.00
6128;BME280;7073;42.672;23.256;2022-12-17T11:20:45;94332.75;;;13.59;100.00
6128;BME280;7073;42.672;23.256;2022-12-17T11:23:31;94324.19;;;13.63;100.00
6128;BME280;7073;42.672;23.256;2022-12-17T11:26:17;94331.41;;;13.73;100.00
6128;BME280;7073;42.672;23.256;2022-12-17T11:29:02;94338.97;;;13.69;100.00
6128;BME280;7073;42.672;23.256;2022-12-17T11:32:04;94335.84;;;13.72;100.00
6128;BME280;7073;42.672;23.256;2022-12-17T11:35:02;94367.00;;;13.85;100.00
6128;BME280;7073;42.672;23.256;2022-12-17T11:37:55;94368.03;;;13.84;100.00
6128;BME280;7073;42.672;23.256;2022-12-17T11:40:44;94363.78;;;13.67;100.00
6128;BME280;7073;42.672;23.256;2022-12-17T11:43:37;94377.91;;;13.66;100.00
6128;BME280;7073;42.672;23.256;2022-12-17T11:46:30;94385.59;;;13.72;100.00
6128;BME280;7073;42.672;23.256;2022-12-17T11:49:25;94380.84;;;13.69;100.00
6128;BME280;7073;42.672;23.256;2022-12-17T11:52:23;94378.00;;;13.71;100.00
6128;BME280;7073;42.672;23.256;2022-12-17T11:55:19;94362.84;;;13.73;100.00
6128;BME280;7073;42.672;23.256;2022-12-17T11:58:10;94358.94;;;13.75;100.00
6128;BME280;7073;42.672;23.256;2022-12-17T12:01:03;94364.66;;;13.72;100.00
6128;BME280;7073;42.672;23.256;2022-12-17T12:03:56;94350.28;;;14.03;100.00
6128;BME280;7073;42.672;23.256;2022-12-17T12:06:47;94359.50;;;14.05;100.00
6128;BME280;7073;42.672;23.256;2022-12-17T12:09:38;94386.28;;;14.24;100.00
6128;BME280;7073;42.672;23.256;2022-12-17T12:12:39;94379.78;;;14.27;100.00
6128;BME280;7073;42.672;23.256;2022-12-17T12:15:31;94386.44;;;14.46;100.00
6128;BME280;7073;42.672;23.256;2022-12-17T12:18:26;94393.41;;;14.74;100.00
6128;BME280;7073;42.672;23.256;2022-12-17T12:21:36;94386.47;;;14.67;100.00
6128;BME280;7073;42.672;23.256;2022-12-17T12:27:46;94400.09;;;15.19;100.00
6128;BME280;7073;42.672;23.256;2022-12-17T12:30:42;94402.03;;;15.07;100.00
6128;BME280;7073;42.672;23.256;2022-12-17T12:33:39;94382.22;;;14.61;100.00
6128;BME280;7073;42.672;23.256;2022-12-17T12:36:26;94392.81;;;15.05;100.00
6128;BME280;7073;42.672;23.256;2022-12-17T12:39:12;94388.13;;;15.28;100.00
6128;BME280;7073;42.672;23.256;2022-12-17T12:42:02;94386.47;;;14.84;100.00
6128;BME280;7073;42.672;23.256;2022-12-17T12:45:01;94390.47;;;14.37;100.00
6128;BME280;7073;42.672;23.256;2022-12-17T12:47:54;94397.78;;;14.85;100.00
6128;BME280;7073;42.672;23.256;2022-12-17T12:50:48;94399.91;;;14.88;100.00
6128;BME280;7073;42.672;23.256;2022-12-17T12:53:55;94386.72;;;14.66;100.00
6128;BME280;7073;42.672;23.256;2022-12-17T12:56:40;94394.03;;;14.81;100.00
6128;BME280;7073;42.672;23.256;2022-12-17T12:59:26;94399.75;;;14.44;100.00
6128;BME280;7073;42.672;23.256;2022-12-17T13:02:23;94398.66;;;14.74;100.00
6128;BME280;7073;42.672;23.256;2022-12-17T13:05:31;94399.66;;;14.89;100.00
6128;BME280;7073;42.672;23.256;2022-12-17T13:08:18;94402.94;;;14.80;100.00
6128;BME280;7073;42.672;23.256;2022-12-17T13:10:45;94394.63;;;15.04;100.00
6128;BME280;7073;42.672;23.256;2022-12-17T13:13:32;94393.13;;;15.08;100.00
6128;BME280;7073;42.672;23.256;2022-12-17T13:16:03;94389.25;;;14.94;100.00
6128;BME280;7073;42.672;23.256;2022-12-17T13:18:43;94384.00;;;14.94;100.00
6128;BME280;7073;42.672;23.256;2022-12-17T13:21:23;94390.56;;;15.13;100.00
6128;BME280;7073;42.672;23.256;2022-12-17T13:23:51;94400.91;;;15.42;100.00
6128;BME280;7073;42.672;23.256;2022-12-17T13:26:20;66884.56;;;-143.30;100.00
6128;BME280;7073;42.672;23.256;2022-12-17T13:28:57;66884.56;;;-143.30;100.00
6128;BME280;7073;42.672;23.256;2022-12-17T13:31:26;66884.56;;;-143.30;100.00
6128;BME280;7073;42.672;23.256;2022-12-17T13:34:01;66884.56;;;-143.30;100.00
6128;BME280;7073;42.672;23.256;2022-12-17T13:36:34;66884.56;;;-143.30;100.00
6128;BME280;7073;42.672;23.256;2022-12-17T13:39:13;66884.56;;;-143.30;100.00
6128;BME280;7073;42.672;23.256;2022-12-17T13:41:52;66884.56;;;-143.30;100.00
6128;BME280;7073;42.672;23.256;2022-12-17T13:44:23;66884.56;;;-143.30;100.00
6128;BME280;7073;42.672;23.256;2022-12-17T13:46:51;66884.56;;;-143.30;100.00
6128;BME280;7073;42.672;23.256;2022-12-17T13:49:21;66884.56;;;-143.30;100.00
6128;BME280;7073;42.672;23.256;2022-12-17T13:51:59;66884.56;;;-143.30;100.00
6128;BME280;7073;42.672;23.256;2022-12-17T13:54:26;66884.56;;;-143.30;100.00
6128;BME280;7073;42.672;23.256;2022-12-17T13:56:53;66884.56;;;-143.30;100.00
6128;BME280;7073;42.672;23.256;2022-12-17T13:59:22;66884.56;;;-143.30;100.00
6128;BME280;7073;42.672;23.256;2022-12-17T14:01:52;66884.56;;;-143.30;100.00
6128;BME280;7073;42.672;23.256;2022-12-17T14:04:22;66884.56;;;-143.30;100.00
6128;BME280;7073;42.672;23.256;2022-12-17T14:06:50;66884.56;;;-143.30;100.00
6128;BME280;7073;42.672;23.256;2022-12-17T14:09:20;66884.56;;;-143.30;100.00
6128;BME280;7073;42.672;23.256;2022-12-17T14:11:48;66884.56;;;-143.30;100.00
6128;BME280;7073;42.672;23.256;2022-12-17T14:14:34;66884.56;;;-143.30;100.00
6128;BME280;7073;42.672;23.256;2022-12-17T14:17:02;66884.56;;;-143.30;100.00
6128;BME280;7073;42.672;23.256;2022-12-17T14:19:31;66884.56;;;-143.30;100.00
6128;BME280;7073;42.672;23.256;2022-12-17T14:21:59;66884.56;;;-143.30;100.00
6128;BME280;7073;42.672;23.256;2022-12-17T14:24:27;66884.56;;;-143.30;100.00
6128;BME280;7073;42.672;23.256;2022-12-17T14:26:56;66884.56;;;-143.30;100.00
6128;BME280;7073;42.672;23.256;2022-12-17T14:29:24;66884.56;;;-143.30;100.00
6128;BME280;7073;42.672;23.256;2022-12-17T14:31:54;66884.56;;;-143.30;100.00
6128;BME280;7073;42.672;23.256;2022-12-17T14:34:21;66884.56;;;-143.30;100.00
6128;BME280;7073;42.672;23.256;2022-12-17T14:36:54;66884.56;;;-143.30;100.00
6128;BME280;7073;42.672;23.256;2022-12-17T14:39:24;66884.56;;;-143.30;100.00
6128;BME280;7073;42.672;23.256;2022-12-17T14:41:53;66884.56;;;-143.30;100.00
6128;BME280;7073;42.672;23.256;2022-12-17T14:44:47;66884.56;;;-143.30;100.00
6128;BME280;7073;42.672;23.256;2022-12-17T14:47:18;66884.56;;;-143.30;100.00
6128;BME280;7073;42.672;23.256;2022-12-17T14:49:52;66884.56;;;-143.30;100.00
6128;BME280;7073;42.672;23.256;2022-12-17T14:52:24;66884.56;;;-143.30;100.00
6128;BME280;7073;42.672;23.256;2022-12-17T14:54:52;66884.56;;;-143.30;100.00
6128;BME280;7073;42.672;23.256;2022-12-17T14:57:20;66884.56;;;-143.30;100.00
6128;BME280;7073;42.672;23.256;2022-12-17T14:59:48;66884.56;;;-143.30;100.00
6128;BME280;7073;42.672;23.256;2022-12-17T15:02:20;66884.56;;;-143.30;100.00
6128;BME280;7073;42.672;23.256;2022-12-17T15:04:49;66884.56;;;-143.30;100.00
6128;BME280;7073;42.672;23.256;2022-12-17T15:07:22;66884.56;;;-143.30;100.00
6128;BME280;7073;42.672;23.256;2022-12-17T15:09:50;66884.56;;;-143.30;100.00
6128;BME280;7073;42.672;23.256;2022-12-17T15:12:17;66884.56;;;-143.30;100.00
6128;BME280;7073;42.672;23.256;2022-12-17T15:14:44;66884.56;;;-143.30;100.00
6128;BME280;7073;42.672;23.256;2022-12-17T15:17:11;66884.56;;;-143.30;100.00
6128;BME280;7073;42.672;23.256;2022-12-17T15:19:38;66884.56;;;-143.30;100.00
6128;BME280;7073;42.672;23.256;2022-12-17T15:22:05;66884.56;;;-143.30;100.00
6128;BME280;7073;42.672;23.256;2022-12-17T15:24:33;66884.56;;;-143.30;100.00
6128;BME280;7073;42.672;23.256;2022-12-17T15:27:00;66884.56;;;-143.30;100.00
6128;BME280;7073;42.672;23.256;2022-12-17T15:29:27;66884.56;;;-143.30;100.00
6128;BME280;7073;42.672;23.256;2022-12-17T15:31:53;66884.56;;;-143.30;100.00
6128;BME280;7073;42.672;23.256;2022-12-17T15:34:20;66884.56;;;-143.30;100.00
6128;BME280;7073;42.672;23.256;2022-12-17T15:36:47;66884.56;;;-143.30;100.00
6128;BME280;7073;42.672;23.256;2022-12-17T15:39:14;66884.56;;;-143.30;100.00
6128;BME280;7073;42.672;23.256;2022-12-17T15:41:42;66884.56;;;-143.30;100.00
6128;BME280;7073;42.672;23.256;2022-12-17T15:44:26;66884.56;;;-143.30;100.00
6128;BME280;7073;42.672;23.256;2022-12-17T15:46:53;66884.56;;;-143.30;100.00
6128;BME280;7073;42.672;23.256;2022-12-17T15:49:20;66884.56;;;-143.30;100.00
6128;BME280;7073;42.672;23.256;2022-12-17T15:51:47;66884.56;;;-143.30;100.00
6128;BME280;7073;42.672;23.256;2022-12-17T15:54:13;66884.56;;;-143.30;100.00
6128;BME280;7073;42.672;23.256;2022-12-17T15:56:42;66884.56;;;-143.30;100.00
6128;BME280;7073;42.672;23.256;2022-12-17T15:59:16;66884.56;;;-143.30;100.00
6128;BME280;7073;42.672;23.256;2022-12-17T16:01:44;66884.56;;;-143.30;100.00
6128;BME280;7073;42.672;23.256;2022-12-17T16:04:10;66884.56;;;-143.30;100.00
6128;BME280;7073;42.672;23.256;2022-12-17T16:06:37;66884.56;;;-143.30;100.00
6128;BME280;7073;42.672;23.256;2022-12-17T16:09:04;66884.56;;;-143.30;100.00
6128;BME280;7073;42.672;23.256;2022-12-17T16:11:31;66884.56;;;-143.30;100.00
6128;BME280;7073;42.672;23.256;2022-12-17T16:13:59;66884.56;;;-143.30;100.00
6128;BME280;7073;42.672;23.256;2022-12-17T16:16:25;66884.56;;;-143.30;100.00
6128;BME280;7073;42.672;23.256;2022-12-17T16:18:54;66884.56;;;-143.30;100.00
6128;BME280;7073;42.672;23.256;2022-12-17T16:21:21;66884.56;;;-143.30;100.00
6128;BME280;7073;42.672;23.256;2022-12-17T16:23:48;66884.56;;;-143.30;100.00
6128;BME280;7073;42.672;23.256;2022-12-17T16:26:14;66884.56;;;-143.30;100.00
6128;BME280;7073;42.672;23.256;2022-12-17T16:28:41;66884.56;;;-143.30;100.00
6128;BME280;7073;42.672;23.256;2022-12-17T16:31:11;66884.56;;;-143.30;100.00
6128;BME280;7073;42.672;23.256;2022-12-17T16:33:40;66884.56;;;-143.30;100.00
6128;BME280;7073;42.672;23.256;2022-12-17T16:36:10;66884.56;;;-143.30;100.00
6128;BME280;7073;42.672;23.256;2022-12-17T16:38:41;66884.56;;;-143.30;100.00
6128;BME280;7073;42.672;23.256;2022-12-17T16:41:08;66884.56;;;-143.30;100.00
6128;BME280;7073;42.672;23.256;2022-12-17T16:43:35;66884.56;;;-143.30;100.00
6128;BME280;7073;42.672;23.256;2022-12-17T16:46:02;66884.56;;;-143.30;100.00
6128;BME280;7073;42.672;23.256;2022-12-17T16:48:35;66884.56;;;-143.30;100.00
6128;BME280;7073;42.672;23.256;2022-12-17T16:51:14;66884.56;;;-143.30;100.00
6128;BME280;7073;42.672;23.256;2022-12-17T16:53:41;66884.56;;;-143.30;100.00
6128;BME280;7073;42.672;23.256;2022-12-17T16:56:13;66884.56;;;-143.30;100.00
6128;BME280;7073;42.672;23.256;2022-12-17T16:58:40;66884.56;;;-143.30;100.00
6128;BME280;7073;42.672;23.256;2022-12-17T17:01:07;66884.56;;;-143.30;100.00
6128;BME280;7073;42.672;23.256;2022-12-17T17:03:39;66884.56;;;-143.30;100.00
6128;BME280;7073;42.672;23.256;2022-12-17T17:06:06;66884.56;;;-143.30;100.00
6128;BME280;7073;42.672;23.256;2022-12-17T17:08:33;66884.56;;;-143.30;100.00
6128;BME280;7073;42.672;23.256;2022-12-17T17:11:08;66884.56;;;-143.30;100.00
6128;BME280;7073;42.672;23.256;2022-12-17T17:13:36;66884.56;;;-143.30;100.00
6128;BME280;7073;42.672;23.256;2022-12-17T17:16:04;66884.56;;;-143.30;100.00
6128;BME280;7073;42.672;23.256;2022-12-17T17:18:31;66884.56;;;-143.30;100.00
6128;BME280;7073;42.672;23.256;2022-12-17T17:21:29;66884.56;;;-143.30;100.00
6128;BME280;7073;42.672;23.256;2022-12-17T17:23:58;66884.56;;;-143.30;100.00
6128;BME280;7073;42.672;23.256;2022-12-17T17:26:26;66884.56;;;-143.30;100.00
6128;BME280;7073;42.672;23.256;2022-12-17T17:28:53;66884.56;;;-143.30;100.00
6128;BME280;7073;42.672;23.256;2022-12-17T17:31:20;66884.56;;;-143.30;100.00
6128;BME280;7073;42.672;23.256;2022-12-17T17:33:48;66884.56;;;-143.30;100.00
6128;BME280;7073;42.672;23.256;2022-12-17T17:36:17;66884.56;;;-143.30;100.00
6128;BME280;7073;42.672;23.256;2022-12-17T17:38:47;66884.56;;;-143.30;100.00
6128;BME280;7073;42.672;23.256;2022-12-17T17:41:16;66884.56;;;-143.30;100.00
6128;BME280;7073;42.672;23.256;2022-12-17T17:43:44;66884.56;;;-143.30;100.00
6128;BME280;7073;42.672;23.256;2022-12-17T17:46:12;66884.56;;;-143.30;100.00
6128;BME280;7073;42.672;23.256;2022-12-17T17:48:40;66884.56;;;-143.30;100.00
6128;BME280;7073;42.672;23.256;2022-12-17T17:51:11;66884.56;;;-143.30;100.00
6128;BME280;7073;42.672;23.256;2022-12-17T17:53:39;66884.56;;;-143.30;100.00
6128;BME280;7073;42.672;23.256;2022-12-17T17:56:11;66884.56;;;-143.30;100.00
6128;BME280;7073;42.672;23.256;2022-12-17T17:58:40;66884.56;;;-143.30;100.00
6128;BME280;7073;42.672;23.256;2022-12-17T18:01:09;66884.56;;;-143.30;100.00
6128;BME280;7073;42.672;23.256;2022-12-17T18:03:36;66884.56;;;-143.30;100.00
6128;BME280;7073;42.672;23.256;2022-12-17T18:06:04;66884.56;;;-143.30;100.00
6128;BME280;7073;42.672;23.256;2022-12-17T18:08:32;66884.56;;;-143.30;100.00
6128;BME280;7073;42.672;23.256;2022-12-17T18:11:00;66884.56;;;-143.30;100.00
6128;BME280;7073;42.672;23.256;2022-12-17T18:13:28;66884.56;;;-143.30;100.00
6128;BME280;7073;42.672;23.256;2022-12-17T18:16:13;66884.56;;;-143.30;100.00
6128;BME280;7073;42.672;23.256;2022-12-17T18:18:40;66884.56;;;-143.30;100.00
6128;BME280;7073;42.672;23.256;2022-12-17T18:21:10;66884.56;;;-143.30;100.00
6128;BME280;7073;42.672;23.256;2022-12-17T18:23:37;66884.56;;;-143.30;100.00
6128;BME280;7073;42.672;23.256;2022-12-17T18:26:07;66884.56;;;-143.30;100.00
6128;BME280;7073;42.672;23.256;2022-12-17T18:28:36;66884.56;;;-143.30;100.00
6128;BME280;7073;42.672;23.256;2022-12-17T18:31:07;66884.56;;;-143.30;100.00
6128;BME280;7073;42.672;23.256;2022-12-17T18:33:35;66884.56;;;-143.30;100.00
6128;BME280;7073;42.672;23.256;2022-12-17T18:36:07;66884.56;;;-143.30;100.00
6128;BME280;7073;42.672;23.256;2022-12-17T18:38:34;66884.56;;;-143.30;100.00
6128;BME280;7073;42.672;23.256;2022-12-17T18:41:07;66884.56;;;-143.30;100.00
6128;BME280;7073;42.672;23.256;2022-12-17T18:43:58;66884.56;;;-143.30;100.00
6128;BME280;7073;42.672;23.256;2022-12-17T18:46:24;66884.56;;;-143.30;100.00
6128;BME280;7073;42.672;23.256;2022-12-17T18:48:52;66884.56;;;-143.30;100.00
6128;BME280;7073;42.672;23.256;2022-12-17T18:51:20;66884.56;;;-143.30;100.00
6128;BME280;7073;42.672;23.256;2022-12-17T18:53:47;66884.56;;;-143.30;100.00
6128;BME280;7073;42.672;23.256;2022-12-17T18:56:14;66884.56;;;-143.30;100.00
6128;BME280;7073;42.672;23.256;2022-12-17T18:58:42;66884.56;;;-143.30;100.00
6128;BME280;7073;42.672;23.256;2022-12-17T19:01:18;66884.56;;;-143.30;100.00
6128;BME280;7073;42.672;23.256;2022-12-17T19:03:45;66884.56;;;-143.30;100.00
6128;BME280;7073;42.672;23.256;2022-12-17T19:06:12;66884.56;;;-143.30;100.00
6128;BME280;7073;42.672;23.256;2022-12-17T19:08:39;66884.56;;;-143.30;100.00
6128;BME280;7073;42.672;23.256;2022-12-17T19:11:07;66884.56;;;-143.30;100.00
6128;BME280;7073;42.672;23.256;2022-12-17T19:13:34;66884.56;;;-143.30;100.00
6128;BME280;7073;42.672;23.256;2022-12-17T19:16:06;66884.56;;;-143.30;100.00
6128;BME280;7073;42.672;23.256;2022-12-17T19:18:35;66884.56;;;-143.30;100.00
6128;BME280;7073;42.672;23.256;2022-12-17T19:21:02;66884.56;;;-143.30;100.00
6128;BME280;7073;42.672;23.256;2022-12-17T19:23:28;66884.56;;;-143.30;100.00
6128;BME280;7073;42.672;23.256;2022-12-17T19:26:03;66884.56;;;-143.30;100.00
6128;BME280;7073;42.672;23.256;2022-12-17T19:28:31;66884.56;;;-143.30;100.00
6128;BME280;7073;42.672;23.256;2022-12-17T19:30:58;66884.56;;;-143.30;100.00
6128;BME280;7073;42.672;23.256;2022-12-17T19:33:24;66884.56;;;-143.30;100.00
6128;BME280;7073;42.672;23.256;2022-12-17T19:35:59;66884.56;;;-143.30;100.00
6128;BME280;7073;42.672;23.256;2022-12-17T19:38:26;66884.56;;;-143.30;100.00
6128;BME280;7073;42.672;23.256;2022-12-17T19:40:53;66884.56;;;-143.30;100.00
6128;BME280;7073;42.672;23.256;2022-12-17T19:43:20;66884.56;;;-143.30;100.00
6128;BME280;7073;42.672;23.256;2022-12-17T19:45:47;66884.56;;;-143.30;100.00
6128;BME280;7073;42.672;23.256;2022-12-17T19:48:15;66884.56;;;-143.30;100.00
6128;BME280;7073;42.672;23.256;2022-12-17T19:50:42;66884.56;;;-143.30;100.00
6128;BME280;7073;42.672;23.256;2022-12-17T19:53:10;66884.56;;;-143.30;100.00
6128;BME280;7073;42.672;23.256;2022-12-17T19:55:37;66884.56;;;-143.30;100.00
6128;BME280;7073;42.672;23.256;2022-12-17T19:58:04;66884.56;;;-143.30;100.00
6128;BME280;7073;42.672;23.256;2022-12-17T20:00:31;66884.56;;;-143.30;100.00
6128;BME280;7073;42.672;23.256;2022-12-17T20:03:00;66884.56;;;-143.30;100.00
6128;BME280;7073;42.672;23.256;2022-12-17T20:05:27;66884.56;;;-143.30;100.00
6128;BME280;7073;42.672;23.256;2022-12-17T20:07:54;66884.56;;;-143.30;100.00
6128;BME280;7073;42.672;23.256;2022-12-17T20:10:23;66884.56;;;-143.30;100.00
6128;BME280;7073;42.672;23.256;2022-12-17T20:12:50;66884.56;;;-143.30;100.00
6128;BME280;7073;42.672;23.256;2022-12-17T20:15:16;66884.56;;;-143.30;100.00
6128;BME280;7073;42.672;23.256;2022-12-17T20:17:43;66884.56;;;-143.30;100.00
6128;BME280;7073;42.672;23.256;2022-12-17T20:20:10;66884.56;;;-143.30;100.00
6128;BME280;7073;42.672;23.256;2022-12-17T20:22:37;66884.56;;;-143.30;100.00
6128;BME280;7073;42.672;23.256;2022-12-17T20:25:05;66884.56;;;-143.30;100.00
6128;BME280;7073;42.672;23.256;2022-12-17T20:27:35;66884.56;;;-143.30;100.00
6128;BME280;7073;42.672;23.256;2022-12-17T20:30:02;66884.56;;;-143.30;100.00
6128;BME280;7073;42.672;23.256;2022-12-17T20:32:32;66884.56;;;-143.30;100.00
6128;BME280;7073;42.672;23.256;2022-12-17T20:34:59;66884.56;;;-143.30;100.00
6128;BME280;7073;42.672;23.256;2022-12-17T20:37:27;66884.56;;;-143.30;100.00
6128;BME280;7073;42.672;23.256;2022-12-17T20:39:54;66884.56;;;-143.30;100.00
6128;BME280;7073;42.672;23.256;2022-12-17T20:42:21;66884.56;;;-143.30;100.00
6128;BME280;7073;42.672;23.256;2022-12-17T20:44:49;66884.56;;;-143.30;100.00
6128;BME280;7073;42.672;23.256;2022-12-17T20:47:16;66884.56;;;-143.30;100.00
6128;BME280;7073;42.672;23.256;2022-12-17T20:49:43;66884.56;;;-143.30;100.00
6128;BME280;7073;42.672;23.256;2022-12-17T20:52:10;66884.56;;;-143.30;100.00
6128;BME280;7073;42.672;23.256;2022-12-17T20:54:37;66884.56;;;-143.30;100.00
6128;BME280;7073;42.672;23.256;2022-12-17T20:57:03;66884.56;;;-143.30;100.00
6128;BME280;7073;42.672;23.256;2022-12-17T20:59:31;66884.56;;;-143.30;100.00
6128;BME280;7073;42.672;23.256;2022-12-17T21:01:59;66884.56;;;-143.30;100.00
6128;BME280;7073;42.672;23.256;2022-12-17T21:04:35;66884.56;;;-143.30;100.00
6128;BME280;7073;42.672;23.256;2022-12-17T21:07:02;66884.56;;;-143.30;100.00
6128;BME280;7073;42.672;23.256;2022-12-17T21:09:29;66884.56;;;-143.30;100.00
6128;BME280;7073;42.672;23.256;2022-12-17T21:11:55;66884.56;;;-143.30;100.00
